Details From OMAL - AL AIN INTL
To OOMS - SEEB INTL
Flight Number -
Tags generated
Created
Modified
Stats Distance 155 nm / 287 km
Max Altitude 9,600 ft / 2,926 m
Waypoints 3
Social Downloads 0
Likes 0
Share VATSIM

Download

Looking for another format? Having issues loading an existing format? Contact us
Advertisement - Login to hide

Notes

Basic altitude profile: - Ascent Rate: 2500ft/min - Ascent Speed: 250kts - Cruise Altitude: 35000ft - Cruise Speed: 420kts - Descent Rate: 1500ft/min - Descent Speed: 250kts Options: - Use NATs: no - Use PACOTS: no - Use low airways: yes - Use high airways: no

Route

OMAL DAPOK OOMS

ID Type Via Altitude Latitude Longitude Leg Dist Tot Dist Heading (true) Name
O OMAL APT - 0 ft / 0 m 24.26169˚ 55.60913˚ - 0 nm - AL AIN INTL
DAPOK FIX - 9,600 ft / 2,926 m 23.99889˚ 57.49972˚ 104 nm 104 nm 98° / 99° -
O OOMS APT - 0 ft / 0 m 23.59554˚ 58.29378˚ 49 nm 154 nm 119° / 119° SEEB INTL

Altitude Profile

Advertisement - Login to hide

OMAL

Details ICAO OMAL (AAN)
Name AL AIN INTL
Region United Arab Emirates
Timezone Asia/Dubai (UTC+4.0)
Stats Elevation 869 ft / 265 m (AMSL)
Location 24.261690° 55.609131°
Runways 1
Magnetic Variation 1.845° E

METAR

OMAL 121600Z 29006KT 9999 SCT045 20/12 Q1019 NOSIG

Decode

TAF

Not found

Departure Runways

ID Width Length Bearing (true) Bearing (mag) Surface Threshold Offset Overrun Length
01 148 ft / 45 m 13,176 ft / 4,016 m 7.40° 5.56° Asphalt 0 ft / 0 m 1,312 ft / 400 m
19 148 ft / 45 m 13,176 ft / 4,016 m 187.40° 185.56° Asphalt 0 ft / 0 m 1,080 ft / 329 m

OOMS

Details ICAO OOMS (MCT)
Name SEEB INTL
Region Oman
Timezone Asia/Muscat (UTC+4.0)
Stats Elevation 48 ft / 15 m (AMSL)
Location 23.595536° 58.293781°
Runways 2
Magnetic Variation 1.459° E

METAR

OOMS 121550Z 18002KT 180V260 CAVOK 22/15 Q1017 NOSIG

Decode

TAF

TAF OOMS 121100Z 1212/1318 34010KT 9000 NSC TEMPO 1215/1218 22005KT BECMG 1220/1222 04010KT PROB30 TEMPO 1221/1301 FEW020 BKN035

Decode

Destination Runways

ID Width Length Bearing (true) Bearing (mag) Surface Threshold Offset Overrun Length
02 98 ft / 30 m 2,498 ft / 761 m 18.94° 17.48° Dirt 0 ft / 0 m 0 ft / 0 m
08 148 ft / 45 m 11,759 ft / 3,584 m 84.98° 83.52° Asphalt 1,375 ft / 419 m 200 ft / 61 m
20 98 ft / 30 m 2,498 ft / 761 m 198.94° 197.48° Dirt 0 ft / 0 m 0 ft / 0 m
26 148 ft / 45 m 11,759 ft / 3,584 m 264.99° 263.53° Asphalt 0 ft / 0 m 200 ft / 61 m

Approach Navaids

Runway Type Ident Frequency Range Bearing (true) Bearing (mag) Slope Elevation
08 Localiser IMW 108.30 MHz 18 nm / 33 km 85.00° 83.54° - 48 ft / 15 m (AMSL)
08 Glidescope IMW 108.30 MHz 10 nm / 19 km 84.98° 83.53° 3.00° 48 ft / 15 m (AMSL)
08 DME IMW 108.30 MHz 18 nm / 33 km - - - 45 ft / 14 m (AMSL)
26 Localiser ISB 110.30 MHz 18 nm / 33 km 264.98° 263.52° - 48 ft / 15 m (AMSL)
26 Glidescope ISB 110.30 MHz 10 nm / 19 km 264.99° 263.53° 3.00° 48 ft / 15 m (AMSL)
26 DME ISB 110.30 MHz 18 nm / 33 km - - - 25 ft / 8 m (AMSL)

Popular Alternatives